createdAt,value
2023-02-22T00:00:50.132Z,4.55
2023-02-22T00:02:10.497Z,4.60
2023-02-22T00:03:16.490Z,4.82
2023-02-22T00:04:21.159Z,4.35
2023-02-22T00:05:24.862Z,4.93
2023-02-22T00:06:26.490Z,5.43
2023-02-22T00:07:28.100Z,5.60
2023-02-22T00:08:32.010Z,5.18
2023-02-22T00:09:33.666Z,4.65
2023-02-22T00:10:38.345Z,4.32
2023-02-22T00:11:46.587Z,4.30
2023-02-22T00:12:51.198Z,4.68
2023-02-22T00:13:57.044Z,4.80
2023-02-22T00:14:58.680Z,4.60
2023-02-22T00:16:01.129Z,5.00
2023-02-22T00:17:02.710Z,4.70
2023-02-22T00:18:04.741Z,4.28
2023-02-22T00:19:06.337Z,4.55
2023-02-22T00:20:10.149Z,4.82
2023-02-22T00:21:13.123Z,4.32
2023-02-22T00:22:19.049Z,4.25
2023-02-22T00:23:22.140Z,4.28
2023-02-22T00:24:24.644Z,4.20
2023-02-22T00:25:26.314Z,4.07
2023-02-22T00:26:27.964Z,4.10
2023-02-22T00:27:29.559Z,4.20
2023-02-22T00:28:31.213Z,4.00
2023-02-22T00:29:34.406Z,4.13
2023-02-22T00:30:36.018Z,4.18
2023-02-22T00:31:39.234Z,3.75
2023-02-22T00:32:40.927Z,3.60
2023-02-22T00:33:42.873Z,3.70
2023-02-22T00:34:44.579Z,3.47
2023-02-22T00:35:46.339Z,4.03
2023-02-22T00:36:49.572Z,3.42
2023-02-22T00:37:53.204Z,3.50
2023-02-22T00:38:55.662Z,3.40
2023-02-22T00:39:57.201Z,3.45
2023-02-22T00:40:58.869Z,3.42
2023-02-22T00:42:00.632Z,3.33
2023-02-22T00:43:05.697Z,3.58
2023-02-22T00:44:07.269Z,3.35
2023-02-22T00:45:09.156Z,3.78
2023-02-22T00:46:10.874Z,3.90
2023-02-22T00:47:12.725Z,3.97
2023-02-22T00:48:14.687Z,3.60
2023-02-22T00:49:16.901Z,3.67
2023-02-22T00:50:19.126Z,3.75
2023-02-22T00:51:20.935Z,3.60
2023-02-22T00:52:26.322Z,4.03
2023-02-22T00:53:28.015Z,3.75
2023-02-22T00:54:29.641Z,3.72
2023-02-22T00:55:35.075Z,3.47
2023-02-22T00:56:37.524Z,4.10
2023-02-22T00:57:40.171Z,3.80
2023-02-22T00:59:43.199Z,3.78
2023-02-22T01:00:45.819Z,3.40
2023-02-22T01:01:48.921Z,3.63
2023-02-22T01:02:53.306Z,3.85
2023-02-22T01:03:55.026Z,4.32
2023-02-22T01:04:56.770Z,4.00
2023-02-22T01:05:58.581Z,4.13
2023-02-22T01:07:00.578Z,4.18
2023-02-22T01:08:03.142Z,4.28
2023-02-22T01:09:04.747Z,3.95
2023-02-22T01:10:08.615Z,4.32
2023-02-22T01:11:10.322Z,4.13
2023-02-22T01:12:13.404Z,4.13
2023-02-22T01:13:15.437Z,4.82
2023-02-22T01:14:18.216Z,4.13
2023-02-22T01:15:24.494Z,3.83
2023-02-22T01:16:26.435Z,4.40
2023-02-22T01:17:28.030Z,4.03
2023-02-22T01:18:29.628Z,4.10
2023-02-22T01:19:32.307Z,4.13
2023-02-22T01:20:33.958Z,3.72
2023-02-22T01:21:35.588Z,3.90
2023-02-22T01:22:37.471Z,4.18
2023-02-22T01:23:39.077Z,4.57
2023-02-22T01:24:40.777Z,4.45
2023-02-22T01:25:43.483Z,4.22
2023-02-22T01:26:52.491Z,3.90
2023-02-22T01:27:54.787Z,4.18
2023-02-22T01:28:56.388Z,4.10
2023-02-22T01:29:59.969Z,4.32
2023-02-22T01:31:02.848Z,4.13
2023-02-22T01:32:06.569Z,4.47
2023-02-22T01:33:09.176Z,4.22
2023-02-22T01:34:12.868Z,4.38
2023-02-22T01:35:18.468Z,3.80
2023-02-22T01:36:20.115Z,4.40
2023-02-22T01:37:21.712Z,3.85
2023-02-22T01:38:23.246Z,4.00
2023-02-22T01:39:24.905Z,3.85
2023-02-22T01:40:34.195Z,4.55
2023-02-22T01:41:36.897Z,3.92
2023-02-22T01:42:39.805Z,3.95
2023-02-22T01:43:41.408Z,4.03
2023-02-22T01:44:43.032Z,4.05
2023-02-22T01:45:54.940Z,4.28
2023-02-22T01:46:58.256Z,4.85
2023-02-22T01:48:14.971Z,4.30
2023-02-22T01:49:16.761Z,3.92
2023-02-22T01:50:18.320Z,4.45
2023-02-22T01:51:24.873Z,4.43
2023-02-22T01:52:26.492Z,4.28
2023-02-22T01:53:38.282Z,4.68
2023-02-22T01:54:43.955Z,4.50
2023-02-22T01:55:46.753Z,4.20
2023-02-22T01:57:00.155Z,4.32
2023-02-22T01:58:02.773Z,4.20
2023-02-22T02:00:13.015Z,4.20
2023-02-22T02:01:19.299Z,4.68
2023-02-22T02:02:21.697Z,3.92
2023-02-22T02:03:27.680Z,4.38
2023-02-22T02:04:29.323Z,4.47
2023-02-22T02:05:31.978Z,4.18
2023-02-22T02:06:34.812Z,4.28
2023-02-22T02:07:37.457Z,4.38
2023-02-22T02:10:01.399Z,3.90
2023-02-22T02:11:09.247Z,4.28
2023-02-22T02:12:12.776Z,3.97
2023-02-22T02:13:16.120Z,4.47
2023-02-22T02:14:18.040Z,4.15
2023-02-22T02:15:22.584Z,4.18
2023-02-22T02:16:41.074Z,3.55
2023-02-22T02:17:45.235Z,3.85
2023-02-22T02:18:46.876Z,3.70
2023-02-22T02:19:55.840Z,4.10
2023-02-22T02:21:18.939Z,3.83
2023-02-22T02:23:08.380Z,3.72
2023-02-22T02:24:34.638Z,3.72
2023-02-22T02:25:39.179Z,3.85
2023-02-22T02:27:11.801Z,4.15
2023-02-22T02:28:35.187Z,4.13
2023-02-22T02:29:48.827Z,4.30
2023-02-22T02:31:16.834Z,4.15
2023-02-22T02:32:46.633Z,3.90
2023-02-22T02:33:48.250Z,4.05
2023-02-22T02:34:55.561Z,4.45
2023-02-22T02:36:04.126Z,4.28
2023-02-22T02:37:18.082Z,4.70
2023-02-22T02:38:31.683Z,4.35
2023-02-22T02:39:53.732Z,4.72
2023-02-22T02:40:58.315Z,5.40
2023-02-22T02:42:00.919Z,4.90
2023-02-22T02:44:14.599Z,5.63
2023-02-22T02:45:20.512Z,5.72
2023-02-22T02:46:35.469Z,5.80
2023-02-22T02:47:40.754Z,6.38
2023-02-22T02:48:51.513Z,6.53
2023-02-22T02:50:13.351Z,6.32
2023-02-22T02:51:16.201Z,6.65
2023-02-22T02:52:19.344Z,6.55
2023-02-22T02:53:27.101Z,6.75
2023-02-22T02:54:29.317Z,7.22
2023-02-22T02:55:31.891Z,6.72
2023-02-22T02:57:35.418Z,6.07
2023-02-22T02:58:52.794Z,5.97
2023-02-22T02:59:54.419Z,6.78
2023-02-22T03:00:59.872Z,6.22
2023-02-22T03:02:27.400Z,5.88
2023-02-22T03:03:53.677Z,6.35
2023-02-22T03:05:13.776Z,6.45
2023-02-22T03:06:24.335Z,5.30
2023-02-22T03:07:31.762Z,5.10
2023-02-22T03:08:51.523Z,4.57
2023-02-22T03:09:54.772Z,5.07
2023-02-22T03:11:17.870Z,5.15
2023-02-22T03:12:48.719Z,5.72
2023-02-22T03:14:07.276Z,5.53
2023-02-22T03:15:33.481Z,5.15
2023-02-22T03:16:54.706Z,5.05
2023-02-22T03:18:22.842Z,4.85
2023-02-22T03:19:35.856Z,5.65
2023-02-22T03:20:48.431Z,4.55
2023-02-22T03:21:57.216Z,4.63
2023-02-22T03:24:09.983Z,4.40
2023-02-22T03:25:16.955Z,4.55
2023-02-22T03:26:24.441Z,5.18
2023-02-22T03:27:49.623Z,4.53
2023-02-22T03:28:53.282Z,4.65
2023-02-22T03:30:00.388Z,4.70
2023-02-22T03:31:13.112Z,4.40
2023-02-22T03:32:22.855Z,4.85
2023-02-22T03:33:33.820Z,4.97
2023-02-22T03:34:45.954Z,4.50
2023-02-22T03:35:56.975Z,5.15
2023-02-22T03:37:06.544Z,4.88
2023-02-22T03:38:10.259Z,4.55
2023-02-22T03:39:16.032Z,4.70
2023-02-22T03:40:26.370Z,4.57
2023-02-22T03:41:31.405Z,4.25
2023-02-22T03:42:37.594Z,4.60
2023-02-22T03:43:44.550Z,4.75
2023-02-22T03:44:50.020Z,5.10
2023-02-22T03:45:52.076Z,4.70
2023-02-22T03:46:56.837Z,4.95
2023-02-22T03:48:04.646Z,5.47
2023-02-22T03:49:09.038Z,4.93
2023-02-22T03:50:20.876Z,4.65
2023-02-22T03:51:22.917Z,4.28
2023-02-22T03:52:28.856Z,4.50
2023-02-22T03:53:33.169Z,5.00
2023-02-22T03:54:35.135Z,5.30
2023-02-22T03:56:47.545Z,4.95
2023-02-22T03:57:52.918Z,5.22
2023-02-22T03:58:55.356Z,5.47
2023-02-22T03:59:57.038Z,5.60
2023-02-22T04:00:58.663Z,5.40
2023-02-22T04:02:00.244Z,4.70
2023-02-22T04:03:04.438Z,4.40
2023-02-22T04:04:06.264Z,5.55
2023-02-22T04:05:08.375Z,6.00
2023-02-22T04:06:10.232Z,5.95
2023-02-22T04:07:11.935Z,4.95
2023-02-22T04:08:14.192Z,5.63
2023-02-22T04:09:16.741Z,5.45
2023-02-22T04:10:19.478Z,5.20
2023-02-22T04:11:21.256Z,5.70
2023-02-22T04:12:22.943Z,4.70
2023-02-22T04:13:34.964Z,4.97
2023-02-22T04:14:37.426Z,5.03
2023-02-22T04:15:39.155Z,5.35
2023-02-22T04:16:43.622Z,4.82
2023-02-22T04:17:45.289Z,5.07
2023-02-22T04:18:49.157Z,5.05
2023-02-22T04:19:53.167Z,5.05
2023-02-22T04:20:56.852Z,4.97
2023-02-22T04:22:12.143Z,5.55
2023-02-22T04:23:13.789Z,5.05
2023-02-22T04:24:16.671Z,5.00
2023-02-22T04:25:18.842Z,4.90
2023-02-22T04:26:21.880Z,5.18
2023-02-22T04:27:28.150Z,4.95
2023-02-22T04:28:31.206Z,4.85
2023-02-22T04:29:48.672Z,4.95
2023-02-22T04:30:50.588Z,4.85
2023-02-22T04:31:53.734Z,5.45
2023-02-22T04:32:56.062Z,5.85
2023-02-22T04:35:05.355Z,5.05
2023-02-22T04:36:08.000Z,4.57
2023-02-22T04:37:10.485Z,5.28
2023-02-22T04:38:12.076Z,5.15
2023-02-22T04:39:15.454Z,5.35
2023-02-22T04:40:19.170Z,5.50
2023-02-22T04:41:25.257Z,4.88
2023-02-22T04:42:27.723Z,5.40
2023-02-22T04:43:30.165Z,4.72
2023-02-22T04:44:39.623Z,4.82
2023-02-22T04:45:41.310Z,5.40
2023-02-22T04:46:43.731Z,6.57
2023-02-22T04:47:47.999Z,5.80
2023-02-22T04:48:49.845Z,5.65
2023-02-22T04:49:55.868Z,5.32
2023-02-22T04:50:57.476Z,5.45
2023-02-22T04:51:59.506Z,6.93
2023-02-22T04:53:08.560Z,5.85
2023-02-22T04:54:13.634Z,5.07
2023-02-22T04:55:20.613Z,5.18
2023-02-22T04:56:22.340Z,4.90
2023-02-22T04:57:24.106Z,4.68
2023-02-22T04:58:25.805Z,4.65
2023-02-22T04:59:27.452Z,5.22
2023-02-22T05:00:33.613Z,5.25
2023-02-22T05:01:37.962Z,4.72
2023-02-22T05:02:40.130Z,4.85
2023-02-22T05:03:42.274Z,4.78
2023-02-22T05:04:44.768Z,5.43
2023-02-22T05:06:48.579Z,5.15
2023-02-22T05:07:50.446Z,5.43
2023-02-22T05:08:53.245Z,5.32
2023-02-22T05:09:54.819Z,4.97
2023-02-22T05:10:56.413Z,6.32
2023-02-22T05:11:58.013Z,5.25
2023-02-22T05:12:59.676Z,4.80
2023-02-22T05:14:01.353Z,5.35
2023-02-22T05:15:05.251Z,6.15
2023-02-22T05:16:07.086Z,5.45
2023-02-22T05:17:08.857Z,4.57
2023-02-22T05:18:10.433Z,4.50
2023-02-22T05:19:12.035Z,5.43
2023-02-22T05:20:34.888Z,5.15
2023-02-22T05:21:36.486Z,5.05
2023-02-22T05:22:38.062Z,4.70
2023-02-22T05:23:39.904Z,5.07
2023-02-22T05:24:41.502Z,5.15
2023-02-22T05:25:43.072Z,4.88
2023-02-22T05:26:45.275Z,5.13
2023-02-22T05:28:03.170Z,5.15
2023-02-22T05:29:05.077Z,5.47
2023-02-22T05:30:09.192Z,5.40
2023-02-22T05:31:10.864Z,4.85
2023-02-22T05:32:12.664Z,5.10
2023-02-22T05:33:14.253Z,6.00
2023-02-22T05:34:16.237Z,5.53
2023-02-22T05:35:21.919Z,5.40
2023-02-22T05:36:23.858Z,5.40
2023-02-22T05:37:25.421Z,5.50
2023-02-22T05:38:27.077Z,5.07
2023-02-22T05:39:29.089Z,5.40
2023-02-22T05:40:31.481Z,5.70
2023-02-22T05:41:33.091Z,6.60
2023-02-22T05:42:34.716Z,5.75
2023-02-22T05:43:36.826Z,5.30
2023-02-22T05:44:38.461Z,4.30
2023-02-22T05:45:40.073Z,4.75
2023-02-22T05:46:41.729Z,4.78
2023-02-22T05:47:43.353Z,5.07
2023-02-22T05:48:44.935Z,4.60
2023-02-22T05:49:46.538Z,4.85
2023-02-22T05:50:49.886Z,5.43
2023-02-22T05:51:51.790Z,4.78
2023-02-22T05:52:53.646Z,4.90
2023-02-22T05:53:55.226Z,5.22
2023-02-22T05:54:56.975Z,5.90
2023-02-22T05:55:58.627Z,5.18
2023-02-22T05:57:01.013Z,5.75
2023-02-22T05:58:05.745Z,5.30
2023-02-22T05:59:07.391Z,4.80
2023-02-22T06:00:10.533Z,5.13
2023-02-22T06:01:14.930Z,5.47
2023-02-22T06:02:16.621Z,5.38
2023-02-22T06:03:18.276Z,4.90
2023-02-22T06:04:20.168Z,5.30
2023-02-22T06:05:22.046Z,4.32
2023-02-22T06:06:23.647Z,4.85
2023-02-22T06:07:25.365Z,5.53
2023-02-22T06:08:26.993Z,4.63
2023-02-22T06:09:28.747Z,5.10
2023-02-22T06:10:30.746Z,5.10
2023-02-22T06:11:32.383Z,5.22
2023-02-22T06:12:34.010Z,5.20
2023-02-22T06:13:36.369Z,4.45
2023-02-22T06:14:38.014Z,4.90
2023-02-22T06:15:39.618Z,4.70
2023-02-22T06:16:41.211Z,5.05
2023-02-22T06:17:43.132Z,5.05
2023-02-22T06:18:44.958Z,5.45
2023-02-22T06:19:46.508Z,5.18
2023-02-22T06:20:48.255Z,5.00
2023-02-22T06:21:51.540Z,4.97
2023-02-22T06:22:56.128Z,4.85
2023-02-22T06:23:57.793Z,5.00
2023-02-22T06:24:59.372Z,5.28
2023-02-22T06:26:01.029Z,4.80
2023-02-22T06:27:02.667Z,5.35
2023-02-22T06:28:04.608Z,5.05
2023-02-22T06:29:06.210Z,5.18
2023-02-22T06:30:10.795Z,5.07
2023-02-22T06:31:13.499Z,4.55
2023-02-22T06:32:15.224Z,5.00
2023-02-22T06:33:16.898Z,4.85
2023-02-22T06:34:18.768Z,4.78
2023-02-22T06:35:20.870Z,4.95
2023-02-22T06:36:22.469Z,5.55
2023-02-22T06:37:24.063Z,5.65
2023-02-22T06:38:27.831Z,5.07
2023-02-22T06:39:29.502Z,4.55
2023-02-22T06:40:31.168Z,4.80
2023-02-22T06:41:32.745Z,4.65
2023-02-22T06:42:34.462Z,4.72
2023-02-22T06:43:36.066Z,4.72
2023-02-22T06:44:37.660Z,4.53
2023-02-22T06:45:39.293Z,4.90
2023-02-22T06:46:47.375Z,4.95
2023-02-22T06:47:49.755Z,4.82
2023-02-22T06:48:52.124Z,5.10
2023-02-22T06:49:57.519Z,5.22
2023-02-22T06:50:59.090Z,5.00
2023-02-22T06:52:00.761Z,6.72
2023-02-22T06:53:02.384Z,5.50
2023-02-22T06:54:04.497Z,4.68
2023-02-22T06:55:06.193Z,5.38
2023-02-22T06:56:07.774Z,5.10
2023-02-22T06:57:10.240Z,5.18
2023-02-22T06:58:11.819Z,5.05
2023-02-22T06:59:13.447Z,4.75
2023-02-22T07:00:17.571Z,5.60
2023-02-22T07:01:19.463Z,4.78
2023-02-22T07:02:21.311Z,4.57
2023-02-22T07:03:23.052Z,4.60
2023-02-22T07:04:24.702Z,5.35
2023-02-22T07:05:27.382Z,6.00
2023-02-22T07:06:28.962Z,9.07
2023-02-22T07:07:30.635Z,17.50
2023-02-22T07:08:32.195Z,20.73
2023-02-22T07:09:33.819Z,31.63
2023-02-22T07:10:36.446Z,25.08
2023-02-22T07:12:40.198Z,16.55
2023-02-22T07:13:41.794Z,18.40
2023-02-22T07:14:43.384Z,14.88
2023-02-22T07:15:45.043Z,8.43
2023-02-22T07:16:46.755Z,6.80
2023-02-22T07:17:48.524Z,7.50
2023-02-22T07:18:50.121Z,6.60
2023-02-22T07:19:51.723Z,8.10
2023-02-22T07:20:54.268Z,6.95
2023-02-22T07:23:01.418Z,6.78
2023-02-22T07:24:05.411Z,5.78
2023-02-22T07:25:10.000Z,6.00
2023-02-22T07:26:12.179Z,5.18
2023-02-22T07:27:13.821Z,5.30
2023-02-22T07:28:15.658Z,5.15
2023-02-22T07:29:17.309Z,5.22
2023-02-22T07:30:25.350Z,4.93
2023-02-22T07:31:29.556Z,4.43
2023-02-22T07:32:31.427Z,5.13
2023-02-22T07:33:33.152Z,4.65
2023-02-22T07:34:34.737Z,4.50
2023-02-22T07:35:39.754Z,4.97
2023-02-22T07:36:41.412Z,4.80
2023-02-22T07:37:43.300Z,5.13
2023-02-22T07:38:45.827Z,4.45
2023-02-22T07:40:48.849Z,4.57
2023-02-22T07:41:50.420Z,4.45
2023-02-22T07:43:01.332Z,4.93
2023-02-22T07:44:02.966Z,4.28
2023-02-22T07:45:04.829Z,5.18
2023-02-22T07:46:06.587Z,4.90
2023-02-22T07:47:08.964Z,4.75
2023-02-22T07:48:12.551Z,5.03
2023-02-22T07:49:14.956Z,4.47
2023-02-22T07:50:17.645Z,4.47
2023-02-22T07:51:20.771Z,4.97
2023-02-22T07:52:22.493Z,4.82
2023-02-22T07:53:30.124Z,4.65
2023-02-22T07:54:31.795Z,5.10
2023-02-22T07:55:34.028Z,4.60
2023-02-22T07:56:35.744Z,4.70
2023-02-22T07:57:37.356Z,4.30
2023-02-22T07:58:39.008Z,4.78
2023-02-22T07:59:40.585Z,4.88
2023-02-22T08:00:44.018Z,4.40
2023-02-22T08:01:45.602Z,4.03
2023-02-22T08:02:47.304Z,4.60
2023-02-22T08:03:49.033Z,4.50
2023-02-22T08:04:50.656Z,4.28
2023-02-22T08:05:56.837Z,4.30
2023-02-22T08:06:58.485Z,4.40
2023-02-22T08:08:00.160Z,4.70
2023-02-22T08:09:01.783Z,4.55
2023-02-22T08:10:06.679Z,4.07
2023-02-22T08:11:08.407Z,4.18
2023-02-22T08:12:10.000Z,4.10
2023-02-22T08:13:11.715Z,4.00
2023-02-22T08:14:16.378Z,4.40
2023-02-22T08:15:24.963Z,4.25
2023-02-22T08:17:28.145Z,4.43
2023-02-22T08:18:29.738Z,5.10
2023-02-22T08:19:31.408Z,4.30
2023-02-22T08:20:32.993Z,3.50
2023-02-22T08:21:34.614Z,3.95
2023-02-22T08:22:36.222Z,4.38
2023-02-22T08:23:38.857Z,3.85
2023-02-22T08:24:40.671Z,3.60
2023-02-22T08:25:42.457Z,3.63
2023-02-22T08:26:47.313Z,3.78
2023-02-22T08:27:48.968Z,4.20
2023-02-22T08:28:50.685Z,3.90
2023-02-22T08:29:52.823Z,3.83
2023-02-22T08:30:54.449Z,4.32
2023-02-22T08:31:56.351Z,4.07
2023-02-22T08:32:58.929Z,3.88
2023-02-22T08:34:01.106Z,3.55
2023-02-22T08:35:03.096Z,3.95
2023-02-22T08:36:05.144Z,3.95
2023-02-22T08:37:06.949Z,4.10
2023-02-22T08:38:16.639Z,3.83
2023-02-22T08:39:18.282Z,3.85
2023-02-22T08:40:22.409Z,3.92
2023-02-22T08:41:24.089Z,4.47
2023-02-22T08:42:25.629Z,3.67
2023-02-22T08:43:28.486Z,3.42
2023-02-22T08:44:30.106Z,3.50
2023-02-22T08:45:31.830Z,3.00
2023-02-22T08:46:33.469Z,3.60
2023-02-22T08:47:35.053Z,3.28
2023-02-22T08:48:36.696Z,3.58
2023-02-22T08:49:38.311Z,3.20
2023-02-22T08:50:41.845Z,3.85
2023-02-22T08:51:43.510Z,4.07
2023-02-22T08:52:45.139Z,3.67
2023-02-22T08:53:46.801Z,3.67
2023-02-22T08:54:48.558Z,3.53
2023-02-22T08:55:50.160Z,3.47
2023-02-22T08:56:51.761Z,3.78
2023-02-22T08:57:53.361Z,3.63
2023-02-22T08:58:55.898Z,3.70
2023-02-22T08:59:57.509Z,3.80
2023-02-22T09:00:59.103Z,4.28
2023-02-22T09:02:02.770Z,3.85
2023-02-22T09:03:07.000Z,4.00
2023-02-22T09:04:08.712Z,3.90
2023-02-22T09:05:10.519Z,4.13
2023-02-22T09:06:12.131Z,3.80
2023-02-22T09:07:14.145Z,4.00
2023-02-22T09:08:16.669Z,4.50
2023-02-22T09:09:21.321Z,3.90
2023-02-22T09:10:28.564Z,3.80
2023-02-22T09:11:30.198Z,4.10
2023-02-22T09:12:31.859Z,3.95
2023-02-22T09:13:33.494Z,4.55
2023-02-22T09:14:35.237Z,4.32
2023-02-22T09:15:37.250Z,4.30
2023-02-22T09:16:38.882Z,4.25
2023-02-22T09:17:40.504Z,4.15
2023-02-22T09:18:44.329Z,4.30
2023-02-22T09:19:46.210Z,4.53
2023-02-22T09:20:47.790Z,4.30
2023-02-22T09:22:00.097Z,4.43
2023-02-22T09:23:02.972Z,4.03
2023-02-22T09:24:08.465Z,4.05
2023-02-22T09:25:16.660Z,3.70
2023-02-22T09:26:18.807Z,4.10
2023-02-22T09:27:20.471Z,3.97
2023-02-22T09:28:22.283Z,3.90
2023-02-22T09:29:26.137Z,3.70
2023-02-22T09:30:31.948Z,3.70
2023-02-22T09:31:36.605Z,3.40
2023-02-22T09:32:38.482Z,2.85
2023-02-22T09:33:41.485Z,3.40
2023-02-22T09:34:45.876Z,3.25
2023-02-22T09:35:49.829Z,3.10
2023-02-22T09:36:51.425Z,3.10
2023-02-22T09:37:54.875Z,3.00
2023-02-22T09:38:58.845Z,3.03
2023-02-22T09:40:00.514Z,2.97
2023-02-22T09:41:12.405Z,3.00
2023-02-22T09:42:17.188Z,3.30
2023-02-22T09:43:18.901Z,3.10
2023-02-22T09:44:28.448Z,2.90
2023-02-22T09:45:48.324Z,3.20
2023-02-22T09:46:51.132Z,3.17
2023-02-22T09:47:57.668Z,3.22
2023-02-22T09:49:06.233Z,2.90
2023-02-22T09:50:16.632Z,3.22
2023-02-22T09:51:23.334Z,3.03
2023-02-22T09:52:37.403Z,2.90
2023-02-22T09:53:42.560Z,2.92
2023-02-22T09:54:51.961Z,2.97
2023-02-22T09:55:57.301Z,3.08
2023-02-22T09:57:02.991Z,2.88
2023-02-22T09:58:17.688Z,3.10
2023-02-22T09:59:26.980Z,3.42
2023-02-22T10:00:33.901Z,3.28
2023-02-22T10:01:41.033Z,3.22
2023-02-22T10:02:45.389Z,3.10
2023-02-22T10:03:56.479Z,3.20
2023-02-22T10:05:34.647Z,3.92
2023-02-22T10:06:37.269Z,3.47
2023-02-22T10:07:48.630Z,3.08
2023-02-22T10:08:56.376Z,3.25
2023-02-22T10:09:58.827Z,2.90
2023-02-22T10:11:19.359Z,2.47
2023-02-22T10:13:42.172Z,2.38
2023-02-22T10:15:08.439Z,2.65
2023-02-22T10:16:19.440Z,2.65
2023-02-22T10:17:40.522Z,2.70
2023-02-22T10:19:08.299Z,2.60
2023-02-22T10:20:28.661Z,2.45
2023-02-22T10:21:45.303Z,2.30
2023-02-22T10:22:56.828Z,2.60
2023-02-22T10:24:24.704Z,2.95
2023-02-22T10:25:28.086Z,2.50
2023-02-22T10:26:32.731Z,2.40
2023-02-22T10:27:40.322Z,2.70
2023-02-22T10:28:47.934Z,2.30
2023-02-22T10:29:54.196Z,2.78
2023-02-22T10:31:05.141Z,2.22
2023-02-22T10:32:14.027Z,2.30
2023-02-22T10:33:19.122Z,2.65
2023-02-22T10:34:29.795Z,2.83
2023-02-22T10:35:35.297Z,2.40
2023-02-22T10:36:39.163Z,2.40
2023-02-22T10:37:40.761Z,2.53
2023-02-22T10:38:48.825Z,2.92
2023-02-22T10:39:52.976Z,2.45
2023-02-22T10:41:24.018Z,2.35
2023-02-22T10:42:27.231Z,2.90
2023-02-22T10:43:29.558Z,2.42
2023-02-22T10:44:32.519Z,2.55
2023-02-22T10:45:36.984Z,2.70
2023-02-22T10:46:40.044Z,2.58
2023-02-22T10:47:41.667Z,2.22
2023-02-22T10:48:45.848Z,2.65
2023-02-22T10:49:51.436Z,2.30
2023-02-22T10:50:54.860Z,2.70
2023-02-22T10:52:04.731Z,2.28
2023-02-22T10:53:07.610Z,2.30
2023-02-22T10:54:15.079Z,2.30
2023-02-22T10:55:19.752Z,2.30
2023-02-22T10:56:23.118Z,2.50
2023-02-22T10:57:32.102Z,2.22
2023-02-22T10:59:04.192Z,2.30
2023-02-22T11:00:29.657Z,2.33
2023-02-22T11:01:31.277Z,2.33
2023-02-22T11:02:35.572Z,2.20
2023-02-22T11:03:37.198Z,2.33
2023-02-22T11:04:51.343Z,2.33
2023-02-22T11:05:53.421Z,2.22
2023-02-22T11:07:00.801Z,2.60
2023-02-22T11:08:23.003Z,2.53
2023-02-22T11:09:24.606Z,2.55
2023-02-22T11:10:32.255Z,2.30
2023-02-22T11:11:34.077Z,2.38
2023-02-22T11:12:38.406Z,2.42
2023-02-22T11:13:40.326Z,2.33
2023-02-22T11:14:42.622Z,2.55
2023-02-22T11:16:50.705Z,2.60
2023-02-22T11:17:55.212Z,2.35
2023-02-22T11:19:25.786Z,2.60
2023-02-22T11:20:35.620Z,2.40
2023-02-22T11:21:37.563Z,2.30
2023-02-22T11:22:41.314Z,2.63
2023-02-22T11:23:44.957Z,2.10
2023-02-22T11:25:15.099Z,2.40
2023-02-22T11:26:20.733Z,2.40
2023-02-22T11:27:34.029Z,2.13
2023-02-22T11:28:36.358Z,2.50
2023-02-22T11:30:39.694Z,2.30
2023-02-22T11:31:45.688Z,2.08
2023-02-22T11:32:50.666Z,2.15
2023-02-22T11:35:20.533Z,2.17
2023-02-22T11:36:42.995Z,2.30
2023-02-22T11:37:44.682Z,2.42
2023-02-22T11:38:56.173Z,2.30
2023-02-22T11:40:22.346Z,2.20
2023-02-22T11:41:30.752Z,2.00
2023-02-22T11:43:34.513Z,1.80
2023-02-22T11:45:44.169Z,2.15
2023-02-22T11:46:48.929Z,1.90
2023-02-22T11:47:52.480Z,1.88
2023-02-22T11:48:56.964Z,2.00
2023-02-22T11:49:58.605Z,1.73
2023-02-22T11:51:27.390Z,1.98
2023-02-22T11:52:37.206Z,1.65
2023-02-22T11:54:28.612Z,1.73
2023-02-22T11:55:43.084Z,1.80
2023-02-22T11:56:48.988Z,1.42
2023-02-22T11:58:04.486Z,1.40
2023-02-22T11:59:13.027Z,1.50
2023-02-22T12:00:39.460Z,1.70
2023-02-22T12:02:22.501Z,1.80
2023-02-22T12:03:24.074Z,1.67
2023-02-22T12:04:43.797Z,1.63
2023-02-22T12:06:07.030Z,1.55
2023-02-22T12:07:15.418Z,1.67
2023-02-22T12:09:34.378Z,1.92
2023-02-22T12:10:55.845Z,1.60
2023-02-22T12:12:16.722Z,1.80
2023-02-22T12:13:36.701Z,1.60
2023-02-22T12:14:59.716Z,1.42
2023-02-22T12:16:16.987Z,1.90
2023-02-22T12:17:54.329Z,1.40
2023-02-22T12:18:59.922Z,1.70
2023-02-22T12:20:24.791Z,1.80
2023-02-22T12:21:29.774Z,1.80
2023-02-22T12:22:36.759Z,1.52
2023-02-22T12:23:54.842Z,1.60
2023-02-22T12:25:09.711Z,1.70
2023-02-22T12:26:20.296Z,1.65
2023-02-22T12:27:28.431Z,1.60
2023-02-22T12:28:51.645Z,1.50
2023-02-22T12:30:34.989Z,1.60
2023-02-22T12:31:40.021Z,1.50
2023-02-22T12:32:46.315Z,1.80
2023-02-22T12:34:27.313Z,1.85
2023-02-22T12:35:34.882Z,1.63
2023-02-22T12:36:47.205Z,1.60
2023-02-22T12:37:56.338Z,1.80
2023-02-22T12:39:07.380Z,1.50
2023-02-22T12:40:24.578Z,1.70
2023-02-22T12:41:54.640Z,1.90
2023-02-22T12:42:56.166Z,1.60
2023-02-22T12:44:04.293Z,1.77
2023-02-22T12:45:13.956Z,1.70
2023-02-22T12:46:26.901Z,2.05
2023-02-22T12:47:37.338Z,1.85
2023-02-22T12:48:44.976Z,1.80
2023-02-22T12:50:00.428Z,1.98
2023-02-22T12:51:21.850Z,1.58
2023-02-22T12:52:49.607Z,1.63
2023-02-22T12:54:05.039Z,1.80
2023-02-22T12:55:15.983Z,1.95
2023-02-22T12:56:37.600Z,2.00
2023-02-22T12:57:57.162Z,2.03
2023-02-22T12:59:32.694Z,1.73
2023-02-22T13:00:44.870Z,1.70
2023-02-22T13:01:52.201Z,1.90
2023-02-22T13:03:22.378Z,1.80
2023-02-22T13:04:24.088Z,2.03
2023-02-22T13:05:26.187Z,1.90
2023-02-22T13:06:36.516Z,2.00
2023-02-22T13:08:06.184Z,1.92
2023-02-22T13:09:12.971Z,1.90
2023-02-22T13:10:32.475Z,2.45
2023-02-22T13:11:41.407Z,2.05
2023-02-22T13:12:55.135Z,2.15
2023-02-22T13:14:21.573Z,2.13
2023-02-22T13:15:52.665Z,1.90
2023-02-22T13:17:07.708Z,2.08
2023-02-22T13:18:25.732Z,2.58
2023-02-22T13:19:53.559Z,1.90
2023-02-22T13:21:01.861Z,2.10
2023-02-22T13:22:13.374Z,1.90
2023-02-22T13:23:53.422Z,1.73
2023-02-22T13:25:28.149Z,1.88
2023-02-22T13:26:40.223Z,1.83
2023-02-22T13:28:06.579Z,1.67
2023-02-22T13:29:13.864Z,2.17
2023-02-22T13:30:20.726Z,1.70
2023-02-22T13:31:40.873Z,1.77
2023-02-22T13:32:51.322Z,2.03
2023-02-22T13:34:16.507Z,2.00
2023-02-22T13:35:35.572Z,2.05
2023-02-22T13:36:48.777Z,2.08
2023-02-22T13:37:56.317Z,2.10
2023-02-22T13:39:07.898Z,1.98
2023-02-22T13:40:47.476Z,2.10
2023-02-22T13:41:55.201Z,2.10
2023-02-22T13:43:13.882Z,2.00
2023-02-22T13:44:15.360Z,2.05
2023-02-22T13:45:54.760Z,2.20
2023-02-22T13:47:05.490Z,1.90
2023-02-22T13:48:42.884Z,2.15
2023-02-22T13:50:18.070Z,2.20
2023-02-22T13:51:38.031Z,2.10
2023-02-22T13:52:40.356Z,2.35
2023-02-22T13:53:55.511Z,2.80
2023-02-22T13:55:03.188Z,2.30
2023-02-22T13:56:04.868Z,2.58
2023-02-22T13:57:20.025Z,2.13
2023-02-22T13:58:21.657Z,2.47
2023-02-22T13:59:41.512Z,2.78
2023-02-22T14:00:49.254Z,2.63
2023-02-22T14:01:53.484Z,2.75
2023-02-22T14:03:02.996Z,2.53
2023-02-22T14:04:28.850Z,2.88
2023-02-22T14:05:49.741Z,2.97
2023-02-22T14:06:51.638Z,2.85
2023-02-22T14:07:53.230Z,3.20
2023-02-22T14:08:54.848Z,3.25
2023-02-22T14:09:59.155Z,3.13
2023-02-22T14:11:02.165Z,2.88
2023-02-22T14:12:04.204Z,3.38
2023-02-22T14:13:07.613Z,3.22
2023-02-22T14:14:10.849Z,3.35
2023-02-22T14:15:29.837Z,3.50
2023-02-22T14:16:33.887Z,3.00
2023-02-22T14:17:39.563Z,3.13
2023-02-22T14:18:44.768Z,3.00
2023-02-22T14:20:21.622Z,2.83
2023-02-22T14:21:23.565Z,3.00
2023-02-22T14:22:29.820Z,2.80
2023-02-22T14:24:03.618Z,3.30
2023-02-22T14:25:05.598Z,3.60
2023-02-22T14:26:32.333Z,3.63
2023-02-22T14:27:40.986Z,3.80
2023-02-22T14:29:21.795Z,3.45
2023-02-22T14:30:34.805Z,3.65
2023-02-22T14:31:46.434Z,3.80
2023-02-22T14:32:49.203Z,3.85
2023-02-22T14:34:09.123Z,4.25
2023-02-22T14:35:26.440Z,3.78
2023-02-22T14:37:27.235Z,4.22
2023-02-22T14:38:29.722Z,3.88
2023-02-22T14:39:39.687Z,4.70
2023-02-22T14:40:42.861Z,4.78
2023-02-22T14:42:12.752Z,4.35
2023-02-22T14:43:19.879Z,4.97
2023-02-22T14:44:25.648Z,4.80
2023-02-22T14:45:34.035Z,4.90
2023-02-22T14:46:40.504Z,5.20
2023-02-22T14:47:49.564Z,4.72
2023-02-22T14:48:58.759Z,5.13
2023-02-22T14:50:05.960Z,4.70
2023-02-22T14:51:22.763Z,5.38
2023-02-22T14:52:29.039Z,5.07
2023-02-22T14:53:36.666Z,5.40
2023-02-22T14:54:52.204Z,5.32
2023-02-22T14:56:02.795Z,5.57
2023-02-22T14:57:21.641Z,6.10
2023-02-22T14:58:28.963Z,5.13
2023-02-22T14:59:31.938Z,5.72
2023-02-22T15:00:42.266Z,6.03
2023-02-22T15:02:01.712Z,5.68
2023-02-22T15:03:37.095Z,4.97
2023-02-22T15:04:39.132Z,6.63
2023-02-22T15:05:40.821Z,5.47
2023-02-22T15:06:42.560Z,5.82
2023-02-22T15:07:53.036Z,6.30
2023-02-22T15:09:25.765Z,5.90
2023-02-22T15:10:48.790Z,5.38
2023-02-22T15:11:55.133Z,5.78
2023-02-22T15:13:11.383Z,5.90
2023-02-22T15:14:25.681Z,5.90
2023-02-22T15:15:27.756Z,6.00
2023-02-22T15:16:31.507Z,5.88